BEX weather

RAF Benson
Benson, England, United Kingdom

Public forecast

Using degrees Celsius for public forecast. Weather courtesy of forecast.io.

METAR (pilot weather report)

Retrieved 2019/03/26 15:50 UTC (45 minutes ago):

EGUB 261550Z 36005KT 9999 SCT045 13/03 Q1032 BLU NOSIG

TAF (pilot weather forecast)

Forecast is more than 12 hours old.

Retrieved 2011/07/01 18:06 UTC (8 years ago):

TAF EGUB 302352Z 3018/0102 CNL